KUKF

Details ICAO KUKF
Name Wilkes Co
Region United States
Timezone America/New_York (UTC-5.0)
Plans Departing 2
Arriving 3
Stats Elevation 1,300 ft / 396 m (AMSL)
Location 36.223602° -81.098608°
Runways 1
Magnetic Variation 7.757° W
Sunrise 2017-12-11 12:27:04 UTC / 2017-12-11 07:27:04 Local
Sunset 2017-12-11 22:11:21 UTC / 2017-12-11 17:11:21 Local
Advertisement - Login to hide

Runways

ID Width Length Bearing (true) Bearing (mag) Surface Threshold Offset Overrun Length
01 98 ft / 30 m 6,214 ft / 1,894 m 358.66° 6.42° Asphalt 0 ft / 0 m 0 ft / 0 m
19 98 ft / 30 m 6,214 ft / 1,894 m 178.66° 186.42° Asphalt 0 ft / 0 m 0 ft / 0 m

Approach Navaids

Runway Type Ident Frequency Range Bearing (true) Bearing (mag) Slope Elevation
01 Localiser IUKF 111.55 MHz 18 nm / 33 km 358.70° 6.46° - 1,252 ft / 382 m (AMSL)
01 Glidescope IUKF 111.55 MHz 10 nm / 19 km 358.70° 6.46° 3.00° 1,252 ft / 382 m (AMSL)
01 DME IUKF 111.55 MHz 18 nm / 33 km - - - 1,252 ft / 382 m (AMSL)

Map

Weather


0- 5 10 15 20 25 30 35+ Temperature / ° C

Clouds and Precipitation
Forecast for 2017-12-11 18:00 UTC. Updated 2 hours ago

Ground ~20,000 ft ~40,000 ft Winds

METAR

KUKF 111655Z AUTO 22004KT 10SM CLR 08/M02 A3010 RMK AO2

TAF

Not found

Frequencies

Recorded 126.62 MHz AWOS 3
Approach 125.15 MHz ATLANTA APP/DEP
Unicom 122.70 MHz CTAF/UNICOM
Warning: Do not use this data for real-world aviation or navigation. No guarantee of current accuracy is given.